sensor_id;sensor_type;location;lat;lon;timestamp;P1;durP1;ratioP1;P2;durP2;ratioP2
82159;SDS011;71734;50.876;7.372;2023-11-22T00:00:56;8.73;;;3.67;;
82159;SDS011;71734;50.876;7.372;2023-11-22T00:03:22;8.48;;;4.05;;
82159;SDS011;71734;50.876;7.372;2023-11-22T00:05:49;9.13;;;4.55;;
82159;SDS011;71734;50.876;7.372;2023-11-22T00:08:16;9.13;;;4.43;;
82159;SDS011;71734;50.876;7.372;2023-11-22T00:10:44;9.38;;;4.57;;
82159;SDS011;71734;50.876;7.372;2023-11-22T00:13:11;10.00;;;4.65;;
82159;SDS011;71734;50.876;7.372;2023-11-22T00:15:38;11.15;;;4.50;;
82159;SDS011;71734;50.876;7.372;2023-11-22T00:18:04;9.18;;;4.43;;
82159;SDS011;71734;50.876;7.372;2023-11-22T00:20:32;9.75;;;4.25;;
82159;SDS011;71734;50.876;7.372;2023-11-22T00:22:59;9.90;;;5.00;;
82159;SDS011;71734;50.876;7.372;2023-11-22T00:25:25;11.13;;;4.82;;
82159;SDS011;71734;50.876;7.372;2023-11-22T00:27:53;10.70;;;5.50;;
82159;SDS011;71734;50.876;7.372;2023-11-22T00:30:20;11.80;;;4.80;;
82159;SDS011;71734;50.876;7.372;2023-11-22T00:32:48;9.90;;;5.57;;
82159;SDS011;71734;50.876;7.372;2023-11-22T00:35:14;10.50;;;5.00;;
82159;SDS011;71734;50.876;7.372;2023-11-22T00:37:41;9.88;;;4.57;;
82159;SDS011;71734;50.876;7.372;2023-11-22T00:40:07;11.25;;;5.22;;
82159;SDS011;71734;50.876;7.372;2023-11-22T00:42:36;11.32;;;5.03;;
82159;SDS011;71734;50.876;7.372;2023-11-22T00:45:06;10.45;;;5.05;;
82159;SDS011;71734;50.876;7.372;2023-11-22T00:47:34;9.30;;;4.43;;
82159;SDS011;71734;50.876;7.372;2023-11-22T00:50:01;11.32;;;5.07;;
82159;SDS011;71734;50.876;7.372;2023-11-22T00:52:29;11.27;;;5.22;;
82159;SDS011;71734;50.876;7.372;2023-11-22T00:54:56;10.45;;;4.95;;
82159;SDS011;71734;50.876;7.372;2023-11-22T00:57:22;10.75;;;4.88;;
82159;SDS011;71734;50.876;7.372;2023-11-22T00:59:49;10.57;;;4.25;;
82159;SDS011;71734;50.876;7.372;2023-11-22T01:02:17;10.35;;;4.78;;
82159;SDS011;71734;50.876;7.372;2023-11-22T01:04:43;11.57;;;5.03;;
82159;SDS011;71734;50.876;7.372;2023-11-22T01:07:10;10.23;;;4.97;;
82159;SDS011;71734;50.876;7.372;2023-11-22T01:09:36;12.50;;;4.70;;
82159;SDS011;71734;50.876;7.372;2023-11-22T01:12:03;11.38;;;4.80;;
82159;SDS011;71734;50.876;7.372;2023-11-22T01:14:30;10.95;;;4.82;;
82159;SDS011;71734;50.876;7.372;2023-11-22T01:16:56;11.02;;;5.70;;
82159;SDS011;71734;50.876;7.372;2023-11-22T01:19:24;10.25;;;4.53;;
82159;SDS011;71734;50.876;7.372;2023-11-22T01:21:51;9.65;;;4.63;;
82159;SDS011;71734;50.876;7.372;2023-11-22T01:24:17;10.50;;;4.80;;
82159;SDS011;71734;50.876;7.372;2023-11-22T01:26:44;12.38;;;5.00;;
82159;SDS011;71734;50.876;7.372;2023-11-22T01:29:10;11.27;;;4.82;;
82159;SDS011;71734;50.876;7.372;2023-11-22T01:31:37;11.02;;;4.90;;
82159;SDS011;71734;50.876;7.372;2023-11-22T01:34:04;10.40;;;5.03;;
82159;SDS011;71734;50.876;7.372;2023-11-22T01:36:32;11.15;;;4.90;;
82159;SDS011;71734;50.876;7.372;2023-11-22T01:38:58;10.20;;;4.50;;
82159;SDS011;71734;50.876;7.372;2023-11-22T01:41:25;12.93;;;5.90;;
82159;SDS011;71734;50.876;7.372;2023-11-22T01:43:51;11.57;;;4.95;;
82159;SDS011;71734;50.876;7.372;2023-11-22T01:46:21;9.88;;;4.63;;
82159;SDS011;71734;50.876;7.372;2023-11-22T01:51:16;9.10;;;4.60;;
82159;SDS011;71734;50.876;7.372;2023-11-22T01:53:43;11.93;;;5.85;;
82159;SDS011;71734;50.876;7.372;2023-11-22T01:56:10;11.50;;;5.47;;
82159;SDS011;71734;50.876;7.372;2023-11-22T02:01:15;9.68;;;4.32;;
82159;SDS011;71734;50.876;7.372;2023-11-22T02:03:42;10.18;;;5.05;;
82159;SDS011;71734;50.876;7.372;2023-11-22T02:06:12;10.77;;;5.32;;
82159;SDS011;71734;50.876;7.372;2023-11-22T02:08:41;11.75;;;5.20;;
82159;SDS011;71734;50.876;7.372;2023-11-22T02:11:09;11.05;;;4.70;;
82159;SDS011;71734;50.876;7.372;2023-11-22T02:13:35;11.45;;;5.22;;
82159;SDS011;71734;50.876;7.372;2023-11-22T02:16:02;9.93;;;5.00;;
82159;SDS011;71734;50.876;7.372;2023-11-22T02:18:29;10.35;;;5.13;;
82159;SDS011;71734;50.876;7.372;2023-11-22T02:20:56;10.10;;;4.32;;
82159;SDS011;71734;50.876;7.372;2023-11-22T02:23:24;11.75;;;5.05;;
82159;SDS011;71734;50.876;7.372;2023-11-22T02:25:51;9.35;;;4.50;;
82159;SDS011;71734;50.876;7.372;2023-11-22T02:28:17;10.57;;;4.80;;
82159;SDS011;71734;50.876;7.372;2023-11-22T02:30:44;10.05;;;4.28;;
82159;SDS011;71734;50.876;7.372;2023-11-22T02:33:11;9.95;;;4.47;;
82159;SDS011;71734;50.876;7.372;2023-11-22T02:35:37;10.23;;;4.20;;
82159;SDS011;71734;50.876;7.372;2023-11-22T02:38:07;10.07;;;4.40;;
82159;SDS011;71734;50.876;7.372;2023-11-22T02:40:35;9.05;;;4.60;;
82159;SDS011;71734;50.876;7.372;2023-11-22T02:43:03;8.85;;;4.13;;
82159;SDS011;71734;50.876;7.372;2023-11-22T02:45:34;10.15;;;4.82;;
82159;SDS011;71734;50.876;7.372;2023-11-22T02:48:00;11.02;;;5.15;;
82159;SDS011;71734;50.876;7.372;2023-11-22T02:50:28;11.00;;;5.05;;
82159;SDS011;71734;50.876;7.372;2023-11-22T02:52:56;11.95;;;5.47;;
82159;SDS011;71734;50.876;7.372;2023-11-22T02:55:23;10.25;;;5.05;;
82159;SDS011;71734;50.876;7.372;2023-11-22T02:57:51;10.32;;;5.00;;
82159;SDS011;71734;50.876;7.372;2023-11-22T03:00:18;11.05;;;5.15;;
82159;SDS011;71734;50.876;7.372;2023-11-22T03:02:45;10.15;;;5.30;;
82159;SDS011;71734;50.876;7.372;2023-11-22T03:05:11;12.15;;;4.95;;
82159;SDS011;71734;50.876;7.372;2023-11-22T03:07:39;10.77;;;4.97;;
82159;SDS011;71734;50.876;7.372;2023-11-22T03:10:06;10.88;;;4.82;;
82159;SDS011;71734;50.876;7.372;2023-11-22T03:12:35;10.80;;;5.20;;
82159;SDS011;71734;50.876;7.372;2023-11-22T03:15:04;11.38;;;5.22;;
82159;SDS011;71734;50.876;7.372;2023-11-22T03:17:31;10.23;;;5.07;;
82159;SDS011;71734;50.876;7.372;2023-11-22T03:19:58;10.32;;;4.85;;
82159;SDS011;71734;50.876;7.372;2023-11-22T03:22:25;11.65;;;5.13;;
82159;SDS011;71734;50.876;7.372;2023-11-22T03:24:52;11.57;;;4.82;;
82159;SDS011;71734;50.876;7.372;2023-11-22T03:27:19;10.95;;;4.90;;
82159;SDS011;71734;50.876;7.372;2023-11-22T03:29:46;9.70;;;4.60;;
82159;SDS011;71734;50.876;7.372;2023-11-22T03:32:16;12.10;;;5.10;;
82159;SDS011;71734;50.876;7.372;2023-11-22T03:34:43;10.27;;;4.47;;
82159;SDS011;71734;50.876;7.372;2023-11-22T03:37:09;10.20;;;4.55;;
82159;SDS011;71734;50.876;7.372;2023-11-22T03:39:36;9.45;;;4.28;;
82159;SDS011;71734;50.876;7.372;2023-11-22T03:42:03;10.52;;;4.43;;
82159;SDS011;71734;50.876;7.372;2023-11-22T03:44:30;10.65;;;4.68;;
82159;SDS011;71734;50.876;7.372;2023-11-22T03:46:56;10.23;;;4.80;;
82159;SDS011;71734;50.876;7.372;2023-11-22T03:49:24;10.45;;;4.60;;
82159;SDS011;71734;50.876;7.372;2023-11-22T03:51:50;9.18;;;4.38;;
82159;SDS011;71734;50.876;7.372;2023-11-22T03:54:17;10.38;;;4.43;;
82159;SDS011;71734;50.876;7.372;2023-11-22T03:56:43;10.80;;;4.53;;
82159;SDS011;71734;50.876;7.372;2023-11-22T03:59:10;10.40;;;4.57;;
82159;SDS011;71734;50.876;7.372;2023-11-22T04:01:37;10.10;;;4.30;;
82159;SDS011;71734;50.876;7.372;2023-11-22T04:04:04;9.30;;;4.18;;
82159;SDS011;71734;50.876;7.372;2023-11-22T04:06:32;12.27;;;4.95;;
82159;SDS011;71734;50.876;7.372;2023-11-22T04:08:59;11.90;;;4.60;;
82159;SDS011;71734;50.876;7.372;2023-11-22T04:11:26;9.73;;;4.22;;
82159;SDS011;71734;50.876;7.372;2023-11-22T04:13:54;9.95;;;4.22;;
82159;SDS011;71734;50.876;7.372;2023-11-22T04:16:20;11.50;;;4.75;;
82159;SDS011;71734;50.876;7.372;2023-11-22T04:18:47;10.60;;;4.60;;
82159;SDS011;71734;50.876;7.372;2023-11-22T04:21:13;9.00;;;4.10;;
82159;SDS011;71734;50.876;7.372;2023-11-22T04:23:41;9.00;;;4.13;;
82159;SDS011;71734;50.876;7.372;2023-11-22T04:26:08;9.98;;;4.55;;
82159;SDS011;71734;50.876;7.372;2023-11-22T04:28:35;9.20;;;4.10;;
82159;SDS011;71734;50.876;7.372;2023-11-22T04:31:02;10.20;;;4.45;;
82159;SDS011;71734;50.876;7.372;2023-11-22T04:33:29;9.00;;;4.22;;
82159;SDS011;71734;50.876;7.372;2023-11-22T04:35:55;9.25;;;4.10;;
82159;SDS011;71734;50.876;7.372;2023-11-22T04:38:22;12.85;;;4.63;;
82159;SDS011;71734;50.876;7.372;2023-11-22T04:40:50;9.65;;;4.22;;
82159;SDS011;71734;50.876;7.372;2023-11-22T04:43:16;9.40;;;4.30;;
82159;SDS011;71734;50.876;7.372;2023-11-22T04:45:42;8.70;;;3.97;;
82159;SDS011;71734;50.876;7.372;2023-11-22T04:48:09;8.90;;;4.05;;
82159;SDS011;71734;50.876;7.372;2023-11-22T04:50:36;10.10;;;4.07;;
82159;SDS011;71734;50.876;7.372;2023-11-22T04:53:02;9.02;;;3.90;;
82159;SDS011;71734;50.876;7.372;2023-11-22T04:55:28;9.70;;;4.00;;
82159;SDS011;71734;50.876;7.372;2023-11-22T04:57:56;8.93;;;3.92;;
82159;SDS011;71734;50.876;7.372;2023-11-22T05:00:23;8.77;;;3.63;;
82159;SDS011;71734;50.876;7.372;2023-11-22T05:02:50;7.90;;;3.25;;
82159;SDS011;71734;50.876;7.372;2023-11-22T05:05:16;7.85;;;3.55;;
82159;SDS011;71734;50.876;7.372;2023-11-22T05:07:43;8.70;;;3.30;;
82159;SDS011;71734;50.876;7.372;2023-11-22T05:10:10;8.70;;;3.58;;
82159;SDS011;71734;50.876;7.372;2023-11-22T05:12:37;8.18;;;3.47;;
82159;SDS011;71734;50.876;7.372;2023-11-22T05:15:08;8.32;;;3.40;;
82159;SDS011;71734;50.876;7.372;2023-11-22T05:17:35;7.43;;;2.80;;
82159;SDS011;71734;50.876;7.372;2023-11-22T05:20:01;7.30;;;2.60;;
82159;SDS011;71734;50.876;7.372;2023-11-22T05:22:28;7.43;;;2.65;;
82159;SDS011;71734;50.876;7.372;2023-11-22T05:24:55;7.95;;;2.85;;
82159;SDS011;71734;50.876;7.372;2023-11-22T05:27:24;7.88;;;3.20;;
82159;SDS011;71734;50.876;7.372;2023-11-22T05:29:51;7.40;;;2.72;;
82159;SDS011;71734;50.876;7.372;2023-11-22T05:32:19;6.43;;;2.40;;
82159;SDS011;71734;50.876;7.372;2023-11-22T05:34:46;6.22;;;2.50;;
82159;SDS011;71734;50.876;7.372;2023-11-22T05:37:12;7.25;;;2.45;;
82159;SDS011;71734;50.876;7.372;2023-11-22T05:39:39;7.43;;;2.80;;
82159;SDS011;71734;50.876;7.372;2023-11-22T05:42:06;7.38;;;2.72;;
82159;SDS011;71734;50.876;7.372;2023-11-22T05:44:32;7.28;;;2.70;;
82159;SDS011;71734;50.876;7.372;2023-11-22T05:46:59;8.23;;;2.95;;
82159;SDS011;71734;50.876;7.372;2023-11-22T05:49:28;7.43;;;2.45;;
82159;SDS011;71734;50.876;7.372;2023-11-22T05:51:55;7.15;;;2.60;;
82159;SDS011;71734;50.876;7.372;2023-11-22T05:54:21;7.28;;;2.60;;
82159;SDS011;71734;50.876;7.372;2023-11-22T05:56:48;6.40;;;2.35;;
82159;SDS011;71734;50.876;7.372;2023-11-22T05:59:14;7.20;;;2.85;;
82159;SDS011;71734;50.876;7.372;2023-11-22T06:01:41;7.22;;;2.45;;
82159;SDS011;71734;50.876;7.372;2023-11-22T06:04:08;8.70;;;2.40;;
82159;SDS011;71734;50.876;7.372;2023-11-22T06:06:36;6.55;;;2.33;;
82159;SDS011;71734;50.876;7.372;2023-11-22T06:09:02;5.88;;;2.47;;
82159;SDS011;71734;50.876;7.372;2023-11-22T06:11:32;6.55;;;2.47;;
82159;SDS011;71734;50.876;7.372;2023-11-22T06:13:58;6.15;;;2.38;;
82159;SDS011;71734;50.876;7.372;2023-11-22T06:16:25;7.20;;;2.65;;
82159;SDS011;71734;50.876;7.372;2023-11-22T06:18:51;8.10;;;3.08;;
82159;SDS011;71734;50.876;7.372;2023-11-22T06:21:18;11.48;;;4.43;;
82159;SDS011;71734;50.876;7.372;2023-11-22T06:23:46;11.77;;;4.57;;
82159;SDS011;71734;50.876;7.372;2023-11-22T06:26:15;11.05;;;4.45;;
82159;SDS011;71734;50.876;7.372;2023-11-22T06:28:41;10.70;;;4.00;;
82159;SDS011;71734;50.876;7.372;2023-11-22T06:31:09;8.70;;;3.40;;
82159;SDS011;71734;50.876;7.372;2023-11-22T06:33:36;9.13;;;3.33;;
82159;SDS011;71734;50.876;7.372;2023-11-22T06:38:58;6.03;;;2.22;;
82159;SDS011;71734;50.876;7.372;2023-11-22T06:41:24;5.78;;;2.25;;
82159;SDS011;71734;50.876;7.372;2023-11-22T06:43:51;7.07;;;2.55;;
82159;SDS011;71734;50.876;7.372;2023-11-22T06:46:18;6.35;;;2.47;;
82159;SDS011;71734;50.876;7.372;2023-11-22T06:48:44;7.00;;;2.30;;
82159;SDS011;71734;50.876;7.372;2023-11-22T06:51:13;8.27;;;2.47;;
82159;SDS011;71734;50.876;7.372;2023-11-22T06:53:40;6.38;;;2.40;;
82159;SDS011;71734;50.876;7.372;2023-11-22T06:56:08;6.82;;;2.20;;
82159;SDS011;71734;50.876;7.372;2023-11-22T06:58:35;5.45;;;1.80;;
82159;SDS011;71734;50.876;7.372;2023-11-22T07:01:01;6.93;;;2.50;;
82159;SDS011;71734;50.876;7.372;2023-11-22T07:03:28;6.20;;;2.35;;
82159;SDS011;71734;50.876;7.372;2023-11-22T07:05:54;6.13;;;2.40;;
82159;SDS011;71734;50.876;7.372;2023-11-22T07:08:21;7.07;;;2.40;;
82159;SDS011;71734;50.876;7.372;2023-11-22T07:10:50;6.50;;;2.40;;
82159;SDS011;71734;50.876;7.372;2023-11-22T07:13:19;7.07;;;2.40;;
82159;SDS011;71734;50.876;7.372;2023-11-22T07:15:45;7.00;;;2.47;;
82159;SDS011;71734;50.876;7.372;2023-11-22T07:18:13;6.40;;;2.55;;
82159;SDS011;71734;50.876;7.372;2023-11-22T07:20:40;7.80;;;2.67;;
82159;SDS011;71734;50.876;7.372;2023-11-22T07:23:07;8.65;;;2.83;;
82159;SDS011;71734;50.876;7.372;2023-11-22T07:25:38;6.78;;;2.53;;
82159;SDS011;71734;50.876;7.372;2023-11-22T07:28:04;6.28;;;2.47;;
82159;SDS011;71734;50.876;7.372;2023-11-22T07:30:32;6.88;;;2.80;;
82159;SDS011;71734;50.876;7.372;2023-11-22T07:32:59;10.20;;;2.47;;
82159;SDS011;71734;50.876;7.372;2023-11-22T07:35:26;7.30;;;2.67;;
82159;SDS011;71734;50.876;7.372;2023-11-22T07:37:53;7.03;;;2.65;;
82159;SDS011;71734;50.876;7.372;2023-11-22T07:40:20;5.97;;;2.13;;
82159;SDS011;71734;50.876;7.372;2023-11-22T07:42:47;8.00;;;2.55;;
82159;SDS011;71734;50.876;7.372;2023-11-22T07:45:14;6.95;;;2.60;;
82159;SDS011;71734;50.876;7.372;2023-11-22T07:47:43;10.88;;;2.83;;
82159;SDS011;71734;50.876;7.372;2023-11-22T07:50:11;8.98;;;2.90;;
82159;SDS011;71734;50.876;7.372;2023-11-22T07:52:38;8.60;;;3.10;;
82159;SDS011;71734;50.876;7.372;2023-11-22T07:55:07;7.88;;;2.95;;
82159;SDS011;71734;50.876;7.372;2023-11-22T07:57:34;8.55;;;3.35;;
82159;SDS011;71734;50.876;7.372;2023-11-22T08:00:01;10.20;;;4.95;;
82159;SDS011;71734;50.876;7.372;2023-11-22T08:02:32;10.88;;;4.50;;
82159;SDS011;71734;50.876;7.372;2023-11-22T08:04:59;9.73;;;4.53;;
82159;SDS011;71734;50.876;7.372;2023-11-22T08:07:28;8.70;;;3.35;;
82159;SDS011;71734;50.876;7.372;2023-11-22T08:09:57;7.95;;;3.47;;
82159;SDS011;71734;50.876;7.372;2023-11-22T08:12:23;9.20;;;4.10;;
82159;SDS011;71734;50.876;7.372;2023-11-22T08:14:51;8.55;;;3.38;;
82159;SDS011;71734;50.876;7.372;2023-11-22T08:17:26;7.22;;;3.33;;
82159;SDS011;71734;50.876;7.372;2023-11-22T08:19:53;7.40;;;2.70;;
82159;SDS011;71734;50.876;7.372;2023-11-22T08:22:22;7.10;;;2.70;;
82159;SDS011;71734;50.876;7.372;2023-11-22T08:24:48;5.65;;;2.20;;
82159;SDS011;71734;50.876;7.372;2023-11-22T08:27:21;6.03;;;1.95;;
82159;SDS011;71734;50.876;7.372;2023-11-22T08:29:47;6.00;;;2.00;;
82159;SDS011;71734;50.876;7.372;2023-11-22T08:32:14;6.97;;;2.17;;
82159;SDS011;71734;50.876;7.372;2023-11-22T08:34:41;5.40;;;1.90;;
82159;SDS011;71734;50.876;7.372;2023-11-22T08:37:10;5.95;;;2.47;;
82159;SDS011;71734;50.876;7.372;2023-11-22T08:39:38;7.57;;;3.53;;
82159;SDS011;71734;50.876;7.372;2023-11-22T08:42:08;8.90;;;4.50;;
82159;SDS011;71734;50.876;7.372;2023-11-22T08:44:35;7.05;;;2.63;;
82159;SDS011;71734;50.876;7.372;2023-11-22T08:47:01;6.05;;;2.05;;
82159;SDS011;71734;50.876;7.372;2023-11-22T08:49:28;5.05;;;1.95;;
82159;SDS011;71734;50.876;7.372;2023-11-22T08:51:56;5.38;;;2.05;;
82159;SDS011;71734;50.876;7.372;2023-11-22T08:54:24;5.45;;;1.90;;
82159;SDS011;71734;50.876;7.372;2023-11-22T08:56:55;5.25;;;1.90;;
82159;SDS011;71734;50.876;7.372;2023-11-22T08:59:22;5.15;;;1.92;;
82159;SDS011;71734;50.876;7.372;2023-11-22T09:01:48;5.95;;;1.80;;
82159;SDS011;71734;50.876;7.372;2023-11-22T09:04:15;5.72;;;2.00;;
82159;SDS011;71734;50.876;7.372;2023-11-22T09:06:42;6.88;;;2.15;;
82159;SDS011;71734;50.876;7.372;2023-11-22T09:09:08;5.63;;;2.10;;
82159;SDS011;71734;50.876;7.372;2023-11-22T09:11:40;5.53;;;1.75;;
82159;SDS011;71734;50.876;7.372;2023-11-22T09:14:07;5.10;;;1.98;;
82159;SDS011;71734;50.876;7.372;2023-11-22T09:16:35;5.05;;;1.75;;
82159;SDS011;71734;50.876;7.372;2023-11-22T09:19:02;4.97;;;1.80;;
82159;SDS011;71734;50.876;7.372;2023-11-22T09:21:28;4.97;;;1.60;;
82159;SDS011;71734;50.876;7.372;2023-11-22T09:23:55;4.60;;;1.60;;
82159;SDS011;71734;50.876;7.372;2023-11-22T09:26:22;5.53;;;1.67;;
82159;SDS011;71734;50.876;7.372;2023-11-22T09:28:48;5.50;;;1.80;;
82159;SDS011;71734;50.876;7.372;2023-11-22T09:31:16;5.05;;;1.80;;
82159;SDS011;71734;50.876;7.372;2023-11-22T09:33:52;5.97;;;2.10;;
82159;SDS011;71734;50.876;7.372;2023-11-22T09:36:18;6.70;;;2.58;;
82159;SDS011;71734;50.876;7.372;2023-11-22T09:38:45;5.72;;;2.00;;
82159;SDS011;71734;50.876;7.372;2023-11-22T09:41:12;4.82;;;1.65;;
82159;SDS011;71734;50.876;7.372;2023-11-22T09:43:39;4.80;;;1.40;;
82159;SDS011;71734;50.876;7.372;2023-11-22T09:46:06;4.00;;;1.50;;
82159;SDS011;71734;50.876;7.372;2023-11-22T09:48:37;4.93;;;1.52;;
82159;SDS011;71734;50.876;7.372;2023-11-22T09:51:08;7.45;;;2.85;;
82159;SDS011;71734;50.876;7.372;2023-11-22T09:53:45;6.55;;;1.90;;
82159;SDS011;71734;50.876;7.372;2023-11-22T09:56:18;4.60;;;1.55;;
82159;SDS011;71734;50.876;7.372;2023-11-22T09:58:46;7.10;;;1.50;;
82159;SDS011;71734;50.876;7.372;2023-11-22T10:01:16;5.55;;;1.92;;
82159;SDS011;71734;50.876;7.372;2023-11-22T10:03:44;5.72;;;1.70;;
82159;SDS011;71734;50.876;7.372;2023-11-22T10:06:11;5.93;;;2.05;;
82159;SDS011;71734;50.876;7.372;2023-11-22T10:08:39;5.72;;;1.95;;
82159;SDS011;71734;50.876;7.372;2023-11-22T10:11:06;6.70;;;2.35;;
82159;SDS011;71734;50.876;7.372;2023-11-22T10:13:33;6.78;;;2.20;;
82159;SDS011;71734;50.876;7.372;2023-11-22T10:16:08;5.13;;;1.90;;
82159;SDS011;71734;50.876;7.372;2023-11-22T10:18:37;5.20;;;1.88;;
82159;SDS011;71734;50.876;7.372;2023-11-22T10:21:15;6.35;;;2.20;;
82159;SDS011;71734;50.876;7.372;2023-11-22T10:23:44;6.63;;;2.10;;
82159;SDS011;71734;50.876;7.372;2023-11-22T10:26:12;6.63;;;2.20;;
82159;SDS011;71734;50.876;7.372;2023-11-22T10:28:41;5.68;;;1.70;;
82159;SDS011;71734;50.876;7.372;2023-11-22T10:31:08;5.55;;;1.75;;
82159;SDS011;71734;50.876;7.372;2023-11-22T10:33:38;5.80;;;2.13;;
82159;SDS011;71734;50.876;7.372;2023-11-22T10:36:06;5.38;;;1.83;;
82159;SDS011;71734;50.876;7.372;2023-11-22T10:38:34;5.43;;;1.80;;
82159;SDS011;71734;50.876;7.372;2023-11-22T10:41:02;5.85;;;1.80;;
82159;SDS011;71734;50.876;7.372;2023-11-22T10:43:30;6.80;;;1.77;;
82159;SDS011;71734;50.876;7.372;2023-11-22T10:46:00;5.70;;;1.95;;
82159;SDS011;71734;50.876;7.372;2023-11-22T10:48:28;5.75;;;1.83;;
82159;SDS011;71734;50.876;7.372;2023-11-22T10:50:55;4.90;;;1.77;;
82159;SDS011;71734;50.876;7.372;2023-11-22T10:53:26;5.30;;;1.85;;
82159;SDS011;71734;50.876;7.372;2023-11-22T10:55:59;4.82;;;1.70;;
82159;SDS011;71734;50.876;7.372;2023-11-22T10:58:30;5.68;;;1.90;;
82159;SDS011;71734;50.876;7.372;2023-11-22T11:00:58;5.65;;;1.75;;
82159;SDS011;71734;50.876;7.372;2023-11-22T11:03:28;4.90;;;1.70;;
82159;SDS011;71734;50.876;7.372;2023-11-22T11:05:57;4.78;;;1.67;;
82159;SDS011;71734;50.876;7.372;2023-11-22T11:08:26;6.53;;;1.80;;
82159;SDS011;71734;50.876;7.372;2023-11-22T11:10:54;6.40;;;2.00;;
82159;SDS011;71734;50.876;7.372;2023-11-22T11:13:21;5.60;;;1.63;;
82159;SDS011;71734;50.876;7.372;2023-11-22T11:15:48;6.90;;;2.25;;
82159;SDS011;71734;50.876;7.372;2023-11-22T11:18:16;5.38;;;1.83;;
82159;SDS011;71734;50.876;7.372;2023-11-22T11:20:48;5.72;;;1.60;;
82159;SDS011;71734;50.876;7.372;2023-11-22T11:23:15;4.85;;;1.52;;
82159;SDS011;71734;50.876;7.372;2023-11-22T11:25:43;4.70;;;1.85;;
82159;SDS011;71734;50.876;7.372;2023-11-22T11:28:10;5.43;;;1.75;;
82159;SDS011;71734;50.876;7.372;2023-11-22T11:30:42;4.25;;;1.40;;
82159;SDS011;71734;50.876;7.372;2023-11-22T11:33:10;4.32;;;1.55;;
82159;SDS011;71734;50.876;7.372;2023-11-22T11:35:38;5.32;;;1.80;;
82159;SDS011;71734;50.876;7.372;2023-11-22T11:38:05;4.72;;;1.55;;
82159;SDS011;71734;50.876;7.372;2023-11-22T11:40:34;5.18;;;1.67;;
82159;SDS011;71734;50.876;7.372;2023-11-22T11:43:04;4.80;;;1.63;;
82159;SDS011;71734;50.876;7.372;2023-11-22T11:45:34;5.03;;;1.48;;
82159;SDS011;71734;50.876;7.372;2023-11-22T11:48:04;4.72;;;1.40;;
82159;SDS011;71734;50.876;7.372;2023-11-22T11:50:31;4.47;;;1.38;;
82159;SDS011;71734;50.876;7.372;2023-11-22T11:52:57;5.40;;;1.60;;
82159;SDS011;71734;50.876;7.372;2023-11-22T11:55:24;4.07;;;1.33;;
82159;SDS011;71734;50.876;7.372;2023-11-22T11:57:53;5.90;;;1.70;;
82159;SDS011;71734;50.876;7.372;2023-11-22T12:00:21;4.38;;;1.50;;
82159;SDS011;71734;50.876;7.372;2023-11-22T12:02:49;5.05;;;1.35;;
82159;SDS011;71734;50.876;7.372;2023-11-22T12:05:15;5.70;;;1.77;;
82159;SDS011;71734;50.876;7.372;2023-11-22T12:07:45;6.25;;;2.05;;
82159;SDS011;71734;50.876;7.372;2023-11-22T12:10:12;4.78;;;1.60;;
82159;SDS011;71734;50.876;7.372;2023-11-22T12:12:39;5.38;;;1.90;;
82159;SDS011;71734;50.876;7.372;2023-11-22T12:15:07;5.10;;;1.75;;
82159;SDS011;71734;50.876;7.372;2023-11-22T12:17:37;5.30;;;1.73;;
82159;SDS011;71734;50.876;7.372;2023-11-22T12:20:13;4.90;;;1.58;;
82159;SDS011;71734;50.876;7.372;2023-11-22T12:22:46;5.57;;;1.75;;
82159;SDS011;71734;50.876;7.372;2023-11-22T12:25:13;4.63;;;1.58;;
82159;SDS011;71734;50.876;7.372;2023-11-22T12:27:42;5.93;;;1.70;;
82159;SDS011;71734;50.876;7.372;2023-11-22T12:30:27;5.03;;;1.60;;
82159;SDS011;71734;50.876;7.372;2023-11-22T12:32:56;4.15;;;1.35;;
82159;SDS011;71734;50.876;7.372;2023-11-22T12:35:23;5.25;;;1.58;;
82159;SDS011;71734;50.876;7.372;2023-11-22T12:40:27;5.05;;;1.80;;
82159;SDS011;71734;50.876;7.372;2023-11-22T12:42:57;4.97;;;1.60;;
82159;SDS011;71734;50.876;7.372;2023-11-22T12:45:24;3.65;;;1.30;;
82159;SDS011;71734;50.876;7.372;2023-11-22T12:47:53;5.20;;;1.52;;
82159;SDS011;71734;50.876;7.372;2023-11-22T12:50:32;4.47;;;1.52;;
82159;SDS011;71734;50.876;7.372;2023-11-22T12:53:07;5.65;;;1.45;;
82159;SDS011;71734;50.876;7.372;2023-11-22T12:55:35;4.85;;;1.60;;
82159;SDS011;71734;50.876;7.372;2023-11-22T12:58:02;5.65;;;2.03;;
82159;SDS011;71734;50.876;7.372;2023-11-22T13:00:28;5.63;;;1.88;;
82159;SDS011;71734;50.876;7.372;2023-11-22T13:02:59;4.72;;;1.75;;
82159;SDS011;71734;50.876;7.372;2023-11-22T13:05:25;5.72;;;1.90;;
82159;SDS011;71734;50.876;7.372;2023-11-22T13:07:52;5.53;;;1.90;;
82159;SDS011;71734;50.876;7.372;2023-11-22T13:10:18;4.55;;;1.40;;
82159;SDS011;71734;50.876;7.372;2023-11-22T13:12:50;4.25;;;1.50;;
82159;SDS011;71734;50.876;7.372;2023-11-22T13:15:17;5.85;;;2.17;;
82159;SDS011;71734;50.876;7.372;2023-11-22T13:17:44;4.93;;;1.50;;
82159;SDS011;71734;50.876;7.372;2023-11-22T13:20:12;4.80;;;1.60;;
82159;SDS011;71734;50.876;7.372;2023-11-22T13:22:40;5.00;;;1.55;;
82159;SDS011;71734;50.876;7.372;2023-11-22T13:25:07;5.60;;;1.88;;
82159;SDS011;71734;50.876;7.372;2023-11-22T13:27:35;6.20;;;1.98;;
82159;SDS011;71734;50.876;7.372;2023-11-22T13:30:02;5.30;;;1.70;;
82159;SDS011;71734;50.876;7.372;2023-11-22T13:32:29;5.32;;;1.65;;
82159;SDS011;71734;50.876;7.372;2023-11-22T13:34:56;4.35;;;1.35;;
82159;SDS011;71734;50.876;7.372;2023-11-22T13:37:24;5.70;;;1.80;;
82159;SDS011;71734;50.876;7.372;2023-11-22T13:39:52;5.28;;;1.70;;
82159;SDS011;71734;50.876;7.372;2023-11-22T13:42:18;5.47;;;1.52;;
82159;SDS011;71734;50.876;7.372;2023-11-22T13:44:46;5.38;;;1.40;;
82159;SDS011;71734;50.876;7.372;2023-11-22T13:47:13;6.45;;;1.45;;
82159;SDS011;71734;50.876;7.372;2023-11-22T13:49:40;4.95;;;1.50;;
82159;SDS011;71734;50.876;7.372;2023-11-22T13:52:08;5.85;;;1.60;;
82159;SDS011;71734;50.876;7.372;2023-11-22T13:54:36;4.85;;;1.40;;
82159;SDS011;71734;50.876;7.372;2023-11-22T13:57:04;5.47;;;1.60;;
82159;SDS011;71734;50.876;7.372;2023-11-22T13:59:31;5.13;;;1.60;;
82159;SDS011;71734;50.876;7.372;2023-11-22T14:01:57;7.32;;;1.77;;
82159;SDS011;71734;50.876;7.372;2023-11-22T14:04:23;5.55;;;1.60;;
82159;SDS011;71734;50.876;7.372;2023-11-22T14:06:51;6.45;;;1.80;;
82159;SDS011;71734;50.876;7.372;2023-11-22T14:09:17;5.07;;;1.50;;
82159;SDS011;71734;50.876;7.372;2023-11-22T14:11:46;4.60;;;1.50;;
82159;SDS011;71734;50.876;7.372;2023-11-22T14:14:12;4.30;;;1.40;;
82159;SDS011;71734;50.876;7.372;2023-11-22T14:16:39;4.00;;;1.25;;
82159;SDS011;71734;50.876;7.372;2023-11-22T14:19:09;4.50;;;1.33;;
82159;SDS011;71734;50.876;7.372;2023-11-22T14:21:36;5.85;;;1.50;;
82159;SDS011;71734;50.876;7.372;2023-11-22T14:24:02;5.10;;;1.58;;
82159;SDS011;71734;50.876;7.372;2023-11-22T14:26:29;4.47;;;1.48;;
82159;SDS011;71734;50.876;7.372;2023-11-22T14:28:58;5.32;;;1.50;;
82159;SDS011;71734;50.876;7.372;2023-11-22T14:31:24;4.22;;;1.50;;
82159;SDS011;71734;50.876;7.372;2023-11-22T14:33:51;4.55;;;1.40;;
82159;SDS011;71734;50.876;7.372;2023-11-22T14:36:17;6.00;;;1.30;;
82159;SDS011;71734;50.876;7.372;2023-11-22T14:38:44;6.65;;;1.50;;
82159;SDS011;71734;50.876;7.372;2023-11-22T14:41:14;7.07;;;1.40;;
82159;SDS011;71734;50.876;7.372;2023-11-22T14:43:41;6.03;;;1.95;;
82159;SDS011;71734;50.876;7.372;2023-11-22T14:46:09;4.18;;;1.20;;
82159;SDS011;71734;50.876;7.372;2023-11-22T14:48:36;3.58;;;1.38;;
82159;SDS011;71734;50.876;7.372;2023-11-22T14:51:02;5.00;;;1.52;;
82159;SDS011;71734;50.876;7.372;2023-11-22T14:53:30;4.05;;;1.33;;
82159;SDS011;71734;50.876;7.372;2023-11-22T14:55:56;4.40;;;1.15;;
82159;SDS011;71734;50.876;7.372;2023-11-22T14:58:23;4.95;;;1.50;;